createdAt,value
2017-07-22T00:00:14.576Z,965.23
2017-07-22T00:01:14.574Z,965.26
2017-07-22T00:02:14.572Z,965.26
2017-07-22T00:03:14.570Z,965.28
2017-07-22T00:04:14.570Z,965.28
2017-07-22T00:05:14.568Z,965.26
2017-07-22T00:06:14.567Z,965.28
2017-07-22T00:07:14.567Z,965.26
2017-07-22T00:08:14.566Z,965.31
2017-07-22T00:09:14.563Z,965.33
2017-07-22T00:10:14.563Z,965.31
2017-07-22T00:11:14.561Z,965.32
2017-07-22T00:12:14.559Z,965.32
2017-07-22T00:13:14.558Z,965.34
2017-07-22T00:14:14.557Z,965.31
2017-07-22T00:15:14.556Z,965.33
2017-07-22T00:16:14.554Z,965.25
2017-07-22T00:17:14.557Z,965.27
2017-07-22T00:18:14.552Z,965.24
2017-07-22T00:19:14.550Z,965.2
2017-07-22T00:20:14.552Z,965.21
2017-07-22T00:21:14.555Z,965.15
2017-07-22T00:22:14.547Z,965.18
2017-07-22T00:23:14.544Z,965.16
2017-07-22T00:24:14.544Z,965.1
2017-07-22T00:25:14.543Z,965.11
2017-07-22T00:26:14.543Z,965.12
2017-07-22T00:27:14.538Z,965.1
2017-07-22T00:28:14.546Z,965.09
2017-07-22T00:29:14.538Z,965.08
2017-07-22T00:30:14.536Z,965.06
2017-07-22T00:31:14.534Z,965.07
2017-07-22T00:32:14.533Z,965.09
2017-07-22T00:33:14.532Z,965.06
2017-07-22T00:34:14.554Z,965.13
2017-07-22T00:35:14.528Z,965.11
2017-07-22T00:36:14.528Z,965.12
2017-07-22T00:37:14.526Z,965.14
2017-07-22T00:38:14.524Z,965.13
2017-07-22T00:39:14.524Z,965.19
2017-07-22T00:40:14.523Z,965.19
2017-07-22T00:41:14.522Z,965.19
2017-07-22T00:42:14.519Z,965.23
2017-07-22T00:43:14.517Z,965.23
2017-07-22T00:44:14.534Z,965.24
2017-07-22T00:45:14.514Z,965.25
2017-07-22T00:46:14.514Z,965.26
2017-07-22T00:47:14.513Z,965.25
2017-07-22T00:48:14.512Z,965.28
2017-07-22T00:49:14.509Z,965.22
2017-07-22T00:50:14.508Z,965.23
2017-07-22T00:51:14.507Z,965.25
2017-07-22T00:52:14.506Z,965.2
2017-07-22T00:53:14.506Z,965.19
2017-07-22T00:54:14.503Z,965.18
2017-07-22T00:55:14.501Z,965.16
2017-07-22T00:56:14.499Z,965.15
2017-07-22T00:57:14.499Z,965.15
2017-07-22T00:58:14.498Z,965.13
2017-07-22T00:59:14.497Z,965.11
2017-07-22T01:00:14.494Z,965.12
2017-07-22T01:01:14.493Z,965.09
2017-07-22T01:02:14.492Z,965.15
2017-07-22T01:03:14.492Z,965.13
2017-07-22T01:04:14.492Z,965.15
2017-07-22T01:05:14.486Z,965.15
2017-07-22T01:06:14.487Z,965.12
2017-07-22T01:07:14.485Z,965.13
2017-07-22T01:08:14.483Z,965.15
2017-07-22T01:09:14.504Z,965.13
2017-07-22T01:10:14.480Z,965.17
2017-07-22T01:11:14.480Z,965.18
2017-07-22T01:12:14.477Z,965.16
2017-07-22T01:13:14.477Z,965.2
2017-07-22T01:14:14.475Z,965.18
2017-07-22T01:15:14.473Z,965.19
2017-07-22T01:16:14.471Z,965.23
2017-07-22T01:17:14.470Z,965.26
2017-07-22T01:18:14.467Z,965.29
2017-07-22T01:19:14.468Z,965.28
2017-07-22T01:20:14.466Z,965.29
2017-07-22T01:21:14.465Z,965.32
2017-07-22T01:22:14.564Z,965.3
2017-07-22T01:23:14.462Z,965.3
2017-07-22T01:24:14.462Z,965.26
2017-07-22T01:25:14.460Z,965.29
2017-07-22T01:26:14.459Z,965.3
2017-07-22T01:27:14.456Z,965.27
2017-07-22T01:28:14.456Z,965.31
2017-07-22T01:29:14.454Z,965.27
2017-07-22T01:30:14.453Z,965.29
2017-07-22T01:31:14.452Z,965.29
2017-07-22T01:32:14.449Z,965.31
2017-07-22T01:33:14.448Z,965.33
2017-07-22T01:34:14.448Z,965.32
2017-07-22T01:35:14.444Z,965.31
2017-07-22T01:36:14.444Z,965.32
2017-07-22T01:37:14.443Z,965.31
2017-07-22T01:38:14.443Z,965.29
2017-07-22T01:39:14.589Z,965.31
2017-07-22T01:40:14.438Z,965.31
2017-07-22T01:41:14.438Z,965.33
2017-07-22T01:42:14.436Z,965.3
2017-07-22T01:43:14.434Z,965.35
2017-07-22T01:44:14.432Z,965.33
2017-07-22T01:45:14.431Z,965.36
2017-07-22T01:46:14.429Z,965.32
2017-07-22T01:47:14.428Z,965.33
2017-07-22T01:48:14.426Z,965.31
2017-07-22T01:49:14.425Z,965.32
2017-07-22T01:50:14.424Z,965.29
2017-07-22T01:51:14.422Z,965.3
2017-07-22T01:52:14.421Z,965.3
2017-07-22T01:53:14.420Z,965.26
2017-07-22T01:54:14.418Z,965.31
2017-07-22T01:55:14.416Z,965.26
2017-07-22T01:56:14.564Z,965.26
2017-07-22T01:57:14.412Z,965.25
2017-07-22T01:58:14.412Z,965.26
2017-07-22T01:59:14.410Z,965.24
2017-07-22T02:00:14.409Z,965.22
2017-07-22T02:01:14.407Z,965.22
2017-07-22T02:02:14.405Z,965.23
2017-07-22T02:03:14.403Z,965.22
2017-07-22T02:04:14.401Z,965.23
2017-07-22T02:05:14.402Z,965.24
2017-07-22T02:06:14.399Z,965.2
2017-07-22T02:07:14.397Z,965.17
2017-07-22T02:08:14.397Z,965.19
2017-07-22T02:09:14.394Z,965.17
2017-07-22T02:10:14.493Z,965.15
2017-07-22T02:11:14.392Z,965.14
2017-07-22T02:12:14.391Z,965.14
2017-07-22T02:13:14.388Z,965.1
2017-07-22T02:14:14.387Z,965.08
2017-07-22T02:15:14.390Z,965.11
2017-07-22T02:16:14.384Z,965.09
2017-07-22T02:17:14.382Z,965.12
2017-07-22T02:18:14.382Z,965.06
2017-07-22T02:19:14.380Z,965.04
2017-07-22T02:20:14.377Z,965.07
2017-07-22T02:21:14.376Z,965.1
2017-07-22T02:22:14.375Z,965.06
2017-07-22T02:23:14.374Z,965.07
2017-07-22T02:24:14.372Z,965.06
2017-07-22T02:25:14.371Z,965.02
2017-07-22T02:26:14.369Z,965
2017-07-22T02:27:14.368Z,965.02
2017-07-22T02:28:14.366Z,964.98
2017-07-22T02:29:14.365Z,964.98
2017-07-22T02:30:14.362Z,964.97
2017-07-22T02:31:14.360Z,964.99
2017-07-22T02:32:14.361Z,965.02
2017-07-22T02:33:14.358Z,964.98
2017-07-22T02:34:14.357Z,964.98
2017-07-22T02:35:14.355Z,964.98
2017-07-22T02:36:14.454Z,964.95
2017-07-22T02:37:14.354Z,964.96
2017-07-22T02:38:14.356Z,964.99
2017-07-22T02:39:14.350Z,964.99
2017-07-22T02:40:14.348Z,965.01
2017-07-22T02:41:14.347Z,965
2017-07-22T02:42:14.346Z,964.97
2017-07-22T02:43:14.344Z,964.96
2017-07-22T02:44:14.341Z,964.98
2017-07-22T02:45:14.339Z,965.01
2017-07-22T02:46:14.337Z,965.01
2017-07-22T02:47:14.337Z,964.98
2017-07-22T02:48:14.335Z,964.94
2017-07-22T02:49:14.333Z,964.96
2017-07-22T02:50:14.331Z,964.97
2017-07-22T02:51:14.329Z,964.94
2017-07-22T02:52:14.327Z,964.99
2017-07-22T02:53:14.326Z,965.01
2017-07-22T02:54:14.323Z,965
2017-07-22T02:55:14.322Z,964.97
2017-07-22T02:56:14.322Z,964.98
2017-07-22T02:57:14.419Z,964.99
2017-07-22T02:58:14.317Z,965.01
2017-07-22T02:59:14.316Z,965.06
2017-07-22T03:00:14.316Z,965.05
2017-07-22T03:01:14.415Z,965.03
2017-07-22T03:02:14.311Z,965.03
2017-07-22T03:03:14.312Z,965.03
2017-07-22T03:04:14.310Z,965.07
2017-07-22T03:05:14.309Z,965.1
2017-07-22T03:06:14.306Z,965.13
2017-07-22T03:07:14.306Z,965.15
2017-07-22T03:08:14.303Z,965.16
2017-07-22T03:09:14.302Z,965.16
2017-07-22T03:10:14.302Z,965.13
2017-07-22T03:11:14.448Z,965.12
2017-07-22T03:12:14.297Z,965.1
2017-07-22T03:13:14.295Z,965.11
2017-07-22T03:14:14.295Z,965.12
2017-07-22T03:15:14.291Z,965.11
2017-07-22T03:16:14.291Z,965.14
2017-07-22T03:17:14.287Z,965.15
2017-07-22T03:18:14.291Z,965.14
2017-07-22T03:19:14.289Z,965.17
2017-07-22T03:20:14.285Z,965.16
2017-07-22T03:21:14.283Z,965.13
2017-07-22T03:22:14.281Z,965.2
2017-07-22T03:23:14.280Z,965.24
2017-07-22T03:24:14.278Z,965.23
2017-07-22T03:25:14.277Z,965.2
2017-07-22T03:26:14.274Z,965.19
2017-07-22T03:27:14.272Z,965.17
2017-07-22T03:28:14.270Z,965.14
2017-07-22T03:29:14.270Z,965.17
2017-07-22T03:30:14.267Z,965.18
2017-07-22T03:31:14.268Z,965.18
2017-07-22T03:32:14.264Z,965.17
2017-07-22T03:33:14.263Z,965.18
2017-07-22T03:34:14.261Z,965.16
2017-07-22T03:35:14.260Z,965.17
2017-07-22T03:36:14.259Z,965.21
2017-07-22T03:37:14.260Z,965.2
2017-07-22T03:38:14.254Z,965.21
2017-07-22T03:39:14.254Z,965.22
2017-07-22T03:40:14.253Z,965.24
2017-07-22T03:41:14.250Z,965.28
2017-07-22T03:42:14.249Z,965.3
2017-07-22T03:43:14.247Z,965.31
2017-07-22T03:44:14.245Z,965.34
2017-07-22T03:45:14.244Z,965.34
2017-07-22T03:46:14.393Z,965.31
2017-07-22T03:47:14.239Z,965.3
2017-07-22T03:48:14.240Z,965.36
2017-07-22T03:49:14.237Z,965.4
2017-07-22T03:50:14.236Z,965.47
2017-07-22T03:51:14.234Z,965.52
2017-07-22T03:52:14.232Z,965.49
2017-07-22T03:53:14.230Z,965.51
2017-07-22T03:54:14.330Z,965.48
2017-07-22T03:55:14.227Z,965.46
2017-07-22T03:56:14.225Z,965.5
2017-07-22T03:57:14.224Z,965.52
2017-07-22T03:58:14.241Z,965.51
2017-07-22T03:59:14.219Z,965.54
2017-07-22T04:00:14.218Z,965.53
2017-07-22T04:01:14.216Z,965.58
2017-07-22T04:02:14.216Z,965.59
2017-07-22T04:03:14.213Z,965.62
2017-07-22T04:04:14.212Z,965.58
2017-07-22T04:05:14.210Z,965.57
2017-07-22T04:06:14.207Z,965.6
2017-07-22T04:07:14.206Z,965.55
2017-07-22T04:08:14.206Z,965.54
2017-07-22T04:09:14.202Z,965.54
2017-07-22T04:10:14.200Z,965.52
2017-07-22T04:11:14.200Z,965.55
2017-07-22T04:12:14.198Z,965.55
2017-07-22T04:13:14.198Z,965.58
2017-07-22T04:14:14.198Z,965.55
2017-07-22T04:15:14.192Z,965.59
2017-07-22T04:16:14.192Z,965.59
2017-07-22T04:17:14.189Z,965.57
2017-07-22T04:18:14.188Z,965.52
2017-07-22T04:19:14.186Z,965.57
2017-07-22T04:20:14.185Z,965.54
2017-07-22T04:21:14.183Z,965.52
2017-07-22T04:22:14.181Z,965.55
2017-07-22T04:23:14.180Z,965.53
2017-07-22T04:24:14.181Z,965.54
2017-07-22T04:25:14.175Z,965.52
2017-07-22T04:26:14.174Z,965.47
2017-07-22T04:27:14.173Z,965.45
2017-07-22T04:28:14.170Z,965.49
2017-07-22T04:29:14.168Z,965.49
2017-07-22T04:30:14.168Z,965.52
2017-07-22T04:31:14.166Z,965.49
2017-07-22T04:32:14.164Z,965.5
2017-07-22T04:33:14.161Z,965.5
2017-07-22T04:34:14.261Z,965.47
2017-07-22T04:35:14.160Z,965.5
2017-07-22T04:36:14.158Z,965.55
2017-07-22T04:37:14.158Z,965.55
2017-07-22T04:38:14.155Z,965.56
2017-07-22T04:39:14.152Z,965.57
2017-07-22T04:40:14.151Z,965.59
2017-07-22T04:41:14.149Z,965.62
2017-07-22T04:42:14.148Z,965.64
2017-07-22T04:43:14.146Z,965.61
2017-07-22T04:44:14.142Z,965.63
2017-07-22T04:45:14.143Z,965.61
2017-07-22T04:46:14.140Z,965.66
2017-07-22T04:47:14.138Z,965.67
2017-07-22T04:48:14.137Z,965.68
2017-07-22T04:49:14.286Z,965.68
2017-07-22T04:50:14.132Z,965.73
2017-07-22T04:51:14.133Z,965.71
2017-07-22T04:52:14.131Z,965.73
2017-07-22T04:53:14.230Z,965.72
2017-07-22T04:54:14.127Z,965.7
2017-07-22T04:55:14.124Z,965.67
2017-07-22T04:56:14.124Z,965.69
2017-07-22T04:57:14.123Z,965.66
2017-07-22T04:58:14.120Z,965.69
2017-07-22T04:59:14.119Z,965.67
2017-07-22T05:00:14.118Z,965.69
2017-07-22T05:01:14.115Z,965.67
2017-07-22T05:02:14.113Z,965.71
2017-07-22T05:03:14.112Z,965.68
2017-07-22T05:04:14.110Z,965.66
2017-07-22T05:05:14.109Z,965.69
2017-07-22T05:06:14.108Z,965.73
2017-07-22T05:07:14.106Z,965.77
2017-07-22T05:08:14.103Z,965.81
2017-07-22T05:09:14.102Z,965.82
2017-07-22T05:10:14.101Z,965.83
2017-07-22T05:11:14.100Z,965.82
2017-07-22T05:12:14.097Z,965.83
2017-07-22T05:13:14.097Z,965.84
2017-07-22T05:14:14.096Z,965.79
2017-07-22T05:15:14.094Z,965.85
2017-07-22T05:16:14.091Z,965.84
2017-07-22T05:17:14.090Z,965.88
2017-07-22T05:18:14.090Z,965.86
2017-07-22T05:19:14.087Z,965.9
2017-07-22T05:20:14.087Z,965.92
2017-07-22T05:21:14.186Z,965.94
2017-07-22T05:22:14.086Z,965.95
2017-07-22T05:23:14.082Z,965.98
2017-07-22T05:24:14.083Z,965.94
2017-07-22T05:25:14.083Z,965.96
2017-07-22T05:26:14.087Z,965.99
2017-07-22T05:27:14.181Z,965.99
2017-07-22T05:28:14.080Z,965.98
2017-07-22T05:29:14.080Z,965.98
2017-07-22T05:30:14.079Z,966.02
2017-07-22T05:31:14.077Z,966.02
2017-07-22T05:32:14.078Z,966.07
2017-07-22T05:33:14.079Z,966.01
2017-07-22T05:34:14.077Z,966.02
2017-07-22T05:35:14.080Z,965.96
2017-07-22T05:36:14.079Z,965.96
2017-07-22T05:37:14.078Z,966.01
2017-07-22T05:38:14.079Z,966.03
2017-07-22T05:39:14.077Z,966.02
2017-07-22T05:40:14.078Z,966.01
2017-07-22T05:41:14.077Z,966.02
2017-07-22T05:42:14.077Z,966.01
2017-07-22T05:43:14.078Z,966.04
2017-07-22T05:44:14.079Z,966
2017-07-22T05:45:14.079Z,966.03
2017-07-22T05:46:14.078Z,966.02
2017-07-22T05:47:14.080Z,966.05
2017-07-22T05:48:14.081Z,966.08
2017-07-22T05:49:14.081Z,966.08
2017-07-22T05:50:14.083Z,966.08
2017-07-22T05:51:14.084Z,966.09
2017-07-22T05:52:14.086Z,966.06
2017-07-22T05:53:14.089Z,966
2017-07-22T05:54:14.089Z,966.08
2017-07-22T05:55:14.090Z,966.05
2017-07-22T05:56:14.091Z,966.03
2017-07-22T05:57:14.092Z,966.08
2017-07-22T05:58:14.094Z,966.06
2017-07-22T05:59:14.097Z,966.12
2017-07-22T06:00:14.099Z,966.13
2017-07-22T06:01:14.099Z,966.18
2017-07-22T06:02:14.103Z,966.12
2017-07-22T06:03:14.104Z,966.12
2017-07-22T06:04:14.104Z,966.12
2017-07-22T06:05:14.208Z,966.13
2017-07-22T06:06:14.110Z,966.14
2017-07-22T06:07:14.111Z,966.16
2017-07-22T06:08:14.114Z,966.18
2017-07-22T06:09:14.265Z,966.22
2017-07-22T06:10:14.119Z,966.22
2017-07-22T06:11:14.120Z,966.26
2017-07-22T06:12:14.126Z,966.26
2017-07-22T06:13:14.127Z,966.29
2017-07-22T06:14:14.129Z,966.28
2017-07-22T06:15:14.132Z,966.27
2017-07-22T06:16:14.136Z,966.27
2017-07-22T06:17:14.137Z,966.28
2017-07-22T06:18:14.140Z,966.31
2017-07-22T06:19:14.142Z,966.3
2017-07-22T06:20:14.146Z,966.24
2017-07-22T06:21:14.148Z,966.26
2017-07-22T06:22:14.152Z,966.26
2017-07-22T06:23:14.154Z,966.27
2017-07-22T06:24:14.160Z,966.3
2017-07-22T06:25:14.161Z,966.24
2017-07-22T06:26:14.165Z,966.26
2017-07-22T06:27:14.168Z,966.26
2017-07-22T06:28:14.172Z,966.28
2017-07-22T06:29:14.173Z,966.26
2017-07-22T06:30:14.176Z,966.25
2017-07-22T06:31:14.181Z,966.2
2017-07-22T06:32:14.185Z,966.18
2017-07-22T06:33:14.289Z,966.2
2017-07-22T06:34:14.193Z,966.23
2017-07-22T06:35:14.197Z,966.24
2017-07-22T06:36:14.200Z,966.27
2017-07-22T06:37:14.308Z,966.28
2017-07-22T06:38:14.415Z,966.27
2017-07-22T06:39:14.381Z,966.31
2017-07-22T06:40:14.247Z,966.26
2017-07-22T06:41:14.387Z,966.23
2017-07-22T06:42:14.267Z,966.28
2017-07-22T06:43:14.260Z,966.27
2017-07-22T06:44:14.232Z,966.29
2017-07-22T06:45:14.235Z,966.31
2017-07-22T06:46:14.240Z,966.29
2017-07-22T06:47:14.244Z,966.33
2017-07-22T06:48:14.248Z,966.31
2017-07-22T06:49:14.252Z,966.27
2017-07-22T06:50:14.257Z,966.29
2017-07-22T06:51:14.259Z,966.3
2017-07-22T06:52:14.265Z,966.31
2017-07-22T06:53:14.269Z,966.29
2017-07-22T06:54:14.274Z,966.29
2017-07-22T06:55:14.277Z,966.29
2017-07-22T06:56:14.283Z,966.28
2017-07-22T06:57:14.288Z,966.32
2017-07-22T06:58:14.291Z,966.33
2017-07-22T06:59:14.294Z,966.35
2017-07-22T07:00:14.301Z,966.35
2017-07-22T07:01:14.305Z,966.33
2017-07-22T07:02:14.308Z,966.39
2017-07-22T07:03:14.314Z,966.4
2017-07-22T07:04:14.317Z,966.42
2017-07-22T07:05:14.321Z,966.43
2017-07-22T07:06:14.325Z,966.45
2017-07-22T07:07:14.332Z,966.45
2017-07-22T07:08:14.336Z,966.47
2017-07-22T07:09:14.340Z,966.5
2017-07-22T07:10:14.345Z,966.46
2017-07-22T07:11:14.450Z,966.5
2017-07-22T07:12:14.352Z,966.54
2017-07-22T07:13:14.556Z,966.54
2017-07-22T07:14:14.360Z,966.54
2017-07-22T07:15:14.364Z,966.53
2017-07-22T07:16:14.368Z,966.53
2017-07-22T07:17:14.375Z,966.58
2017-07-22T07:18:14.377Z,966.57
2017-07-22T07:19:14.384Z,966.62
2017-07-22T07:20:14.383Z,966.62
2017-07-22T07:21:14.388Z,966.62
2017-07-22T07:22:14.392Z,966.64
2017-07-22T07:23:14.396Z,966.65
2017-07-22T07:24:14.399Z,966.66
2017-07-22T07:25:14.404Z,966.64
2017-07-22T07:26:14.407Z,966.68
2017-07-22T07:27:14.409Z,966.63
2017-07-22T07:28:14.414Z,966.65
2017-07-22T07:29:14.419Z,966.64
2017-07-22T07:30:14.421Z,966.64
2017-07-22T07:31:14.424Z,966.67
2017-07-22T07:32:14.427Z,966.67
2017-07-22T07:33:14.432Z,966.63
2017-07-22T07:34:14.435Z,966.59
2017-07-22T07:35:14.435Z,966.59
2017-07-22T07:36:14.440Z,966.58
2017-07-22T07:37:14.444Z,966.62
2017-07-22T07:38:14.445Z,966.6
2017-07-22T07:39:14.451Z,966.62
2017-07-22T07:40:14.455Z,966.59
2017-07-22T07:41:14.457Z,966.62
2017-07-22T07:42:14.457Z,966.62
2017-07-22T07:43:14.567Z,966.62
2017-07-22T07:44:14.465Z,966.65
2017-07-22T07:45:14.468Z,966.67
2017-07-22T07:46:14.570Z,966.66
2017-07-22T07:47:14.475Z,966.7
2017-07-22T07:48:14.477Z,966.71
2017-07-22T07:49:14.479Z,966.7
2017-07-22T07:50:14.481Z,966.71
2017-07-22T07:51:14.484Z,966.71
2017-07-22T07:52:14.486Z,966.7
2017-07-22T07:53:14.488Z,966.74
2017-07-22T07:54:14.490Z,966.7
2017-07-22T07:55:14.503Z,966.68
2017-07-22T07:56:14.496Z,966.69
2017-07-22T07:57:14.498Z,966.71
2017-07-22T07:58:14.502Z,966.7
2017-07-22T07:59:14.505Z,966.73
2017-07-22T08:00:14.508Z,966.73
2017-07-22T08:01:14.509Z,966.73
2017-07-22T08:02:14.513Z,966.73
2017-07-22T08:03:14.516Z,966.71
2017-07-22T08:04:14.520Z,966.67
2017-07-22T08:05:14.517Z,966.66
2017-07-22T08:06:14.541Z,966.65
2017-07-22T08:07:14.523Z,966.73
2017-07-22T08:08:14.527Z,966.7
2017-07-22T08:09:14.529Z,966.71
2017-07-22T08:10:14.529Z,966.7
2017-07-22T08:11:14.532Z,966.71
2017-07-22T08:12:14.534Z,966.72
2017-07-22T08:13:14.536Z,966.69
2017-07-22T08:14:14.538Z,966.67
2017-07-22T08:15:14.539Z,966.72
2017-07-22T08:16:14.541Z,966.68
2017-07-22T08:17:14.545Z,966.68
2017-07-22T08:18:14.544Z,966.73
2017-07-22T08:19:14.547Z,966.72
2017-07-22T08:20:14.549Z,966.76
2017-07-22T08:21:14.550Z,966.75
2017-07-22T08:22:14.551Z,966.71
2017-07-22T08:23:14.553Z,966.69
2017-07-22T08:24:14.556Z,966.71
2017-07-22T08:25:14.556Z,966.76
2017-07-22T08:26:14.559Z,966.8
2017-07-22T08:27:14.559Z,966.8
2017-07-22T08:28:14.561Z,966.81
2017-07-22T08:29:14.563Z,966.79
2017-07-22T08:30:14.564Z,966.76
2017-07-22T08:31:14.565Z,966.8
2017-07-22T08:32:14.568Z,966.78
2017-07-22T08:33:14.569Z,966.79
2017-07-22T08:34:14.569Z,966.8
2017-07-22T08:35:14.572Z,966.8
2017-07-22T08:36:14.572Z,966.8
2017-07-22T08:37:14.574Z,966.82
2017-07-22T08:38:14.574Z,966.8
2017-07-22T08:39:14.576Z,966.82
2017-07-22T08:40:14.578Z,966.82
2017-07-22T08:41:14.579Z,966.82
2017-07-22T08:42:14.580Z,966.78
2017-07-22T08:43:14.582Z,966.79
2017-07-22T08:44:14.582Z,966.84
2017-07-22T08:45:14.581Z,966.81
2017-07-22T08:46:14.584Z,966.81
2017-07-22T08:47:14.586Z,966.77
2017-07-22T08:48:14.585Z,966.78
2017-07-22T08:49:14.584Z,966.77
2017-07-22T08:50:14.588Z,966.73
2017-07-22T08:51:14.587Z,966.71
2017-07-22T08:52:14.587Z,966.78
2017-07-22T08:53:14.588Z,966.76
2017-07-22T08:54:14.589Z,966.72
2017-07-22T08:55:14.591Z,966.75
2017-07-22T08:56:14.590Z,966.74
2017-07-22T08:57:14.592Z,966.78
2017-07-22T08:58:14.591Z,966.77
2017-07-22T08:59:14.593Z,966.73
2017-07-22T09:00:14.593Z,966.77
2017-07-22T09:01:14.592Z,966.78
2017-07-22T09:02:14.595Z,966.75
2017-07-22T09:03:14.596Z,966.77
2017-07-22T09:04:14.597Z,966.74
2017-07-22T09:05:14.597Z,966.76
2017-07-22T09:06:14.596Z,966.73
2017-07-22T09:07:14.599Z,966.73
2017-07-22T09:08:14.602Z,966.7
2017-07-22T09:09:14.600Z,966.7
2017-07-22T09:10:14.598Z,966.71
2017-07-22T09:11:14.599Z,966.67
2017-07-22T09:12:14.600Z,966.68
2017-07-22T09:13:14.601Z,966.72
2017-07-22T09:14:14.754Z,966.73
2017-07-22T09:15:14.603Z,966.73
2017-07-22T09:16:14.604Z,966.75
2017-07-22T09:17:14.602Z,966.76
2017-07-22T09:18:14.604Z,966.77
2017-07-22T09:19:14.704Z,966.78
2017-07-22T09:20:14.605Z,966.74
2017-07-22T09:21:14.604Z,966.76
2017-07-22T09:22:14.608Z,966.74
2017-07-22T09:23:14.606Z,966.74
2017-07-22T09:24:14.609Z,966.71
2017-07-22T09:25:14.608Z,966.73
2017-07-22T09:26:14.608Z,966.69
2017-07-22T09:27:14.609Z,966.66
2017-07-22T09:28:14.607Z,966.63
2017-07-22T09:29:14.609Z,966.65
2017-07-22T09:30:14.608Z,966.63
2017-07-22T09:31:14.610Z,966.62
2017-07-22T09:32:14.613Z,966.59
2017-07-22T09:33:14.610Z,966.57
2017-07-22T09:34:14.611Z,966.57
2017-07-22T09:35:14.610Z,966.58
2017-07-22T09:36:14.610Z,966.61
2017-07-22T09:37:14.612Z,966.59
2017-07-22T09:38:14.612Z,966.63
2017-07-22T09:39:14.614Z,966.64
2017-07-22T09:40:14.613Z,966.62
2017-07-22T09:41:14.614Z,966.62
2017-07-22T09:42:14.613Z,966.65
2017-07-22T09:43:14.614Z,966.64
2017-07-22T09:44:14.614Z,966.64
2017-07-22T09:45:14.615Z,966.66
2017-07-22T09:46:14.614Z,966.64
2017-07-22T09:47:14.614Z,966.59
2017-07-22T09:48:14.615Z,966.62
2017-07-22T09:49:14.615Z,966.61
2017-07-22T09:50:14.615Z,966.61
2017-07-22T09:51:14.616Z,966.63
2017-07-22T09:52:14.617Z,966.65
2017-07-22T09:53:14.616Z,966.64
2017-07-22T09:54:14.617Z,966.63
2017-07-22T09:55:14.617Z,966.65
2017-07-22T09:56:14.617Z,966.65
2017-07-22T09:57:14.617Z,966.66
2017-07-22T09:58:14.618Z,966.64
2017-07-22T09:59:14.617Z,966.65
2017-07-22T10:00:14.618Z,966.6
2017-07-22T10:01:14.618Z,966.63
2017-07-22T10:02:14.617Z,966.61
2017-07-22T10:03:14.619Z,966.58
2017-07-22T10:04:14.618Z,966.63
2017-07-22T10:05:14.618Z,966.6
2017-07-22T10:06:14.619Z,966.58
2017-07-22T10:07:14.620Z,966.59
2017-07-22T10:08:14.619Z,966.58
2017-07-22T10:09:14.621Z,966.59
2017-07-22T10:10:14.619Z,966.59
2017-07-22T10:11:14.620Z,966.58
2017-07-22T10:12:14.621Z,966.6
2017-07-22T10:13:14.622Z,966.58
2017-07-22T10:14:14.625Z,966.6
2017-07-22T10:15:14.622Z,966.57
2017-07-22T10:16:14.620Z,966.6
2017-07-22T10:17:14.620Z,966.58
2017-07-22T10:18:14.623Z,966.59
2017-07-22T10:19:14.622Z,966.59
2017-07-22T10:20:14.623Z,966.61
2017-07-22T10:21:14.622Z,966.62
2017-07-22T10:22:14.623Z,966.61
2017-07-22T10:23:14.622Z,966.59
2017-07-22T10:24:14.623Z,966.57
2017-07-22T10:25:14.624Z,966.56
2017-07-22T10:26:14.624Z,966.57
2017-07-22T10:27:14.626Z,966.6
2017-07-22T10:28:14.625Z,966.57
2017-07-22T10:29:14.624Z,966.57
2017-07-22T10:30:14.624Z,966.52
2017-07-22T10:31:14.625Z,966.54
2017-07-22T10:32:14.625Z,966.5
2017-07-22T10:33:14.625Z,966.52
2017-07-22T10:34:14.625Z,966.49
2017-07-22T10:35:14.626Z,966.48
2017-07-22T10:36:14.626Z,966.5
2017-07-22T10:37:14.626Z,966.48
2017-07-22T10:38:14.626Z,966.48
2017-07-22T10:39:14.626Z,966.48
2017-07-22T10:40:14.628Z,966.44
2017-07-22T10:41:14.628Z,966.46
2017-07-22T10:42:14.629Z,966.44
2017-07-22T10:43:14.627Z,966.42
2017-07-22T10:44:14.628Z,966.4
2017-07-22T10:45:14.630Z,966.4
2017-07-22T10:46:14.628Z,966.43
2017-07-22T10:47:14.629Z,966.41
2017-07-22T10:48:14.630Z,966.4
2017-07-22T10:49:14.630Z,966.41
2017-07-22T10:50:14.630Z,966.42
2017-07-22T10:51:14.631Z,966.43
2017-07-22T10:52:14.630Z,966.42
2017-07-22T10:53:14.629Z,966.4
2017-07-22T10:54:14.629Z,966.42
2017-07-22T10:55:14.632Z,966.47
2017-07-22T10:56:14.631Z,966.42
2017-07-22T10:57:14.633Z,966.42
2017-07-22T10:58:14.634Z,966.4
2017-07-22T10:59:14.631Z,966.41
2017-07-22T11:00:14.632Z,966.44
2017-07-22T11:01:14.633Z,966.42
2017-07-22T11:02:14.636Z,966.4
2017-07-22T11:03:14.632Z,966.37
2017-07-22T11:04:14.634Z,966.39
2017-07-22T11:05:14.634Z,966.35
2017-07-22T11:06:14.636Z,966.35
2017-07-22T11:07:14.636Z,966.3
2017-07-22T11:08:14.634Z,966.32
2017-07-22T11:09:14.640Z,966.3
2017-07-22T11:10:14.634Z,966.28
2017-07-22T11:11:14.635Z,966.29
2017-07-22T11:12:14.635Z,966.32
2017-07-22T11:13:14.636Z,966.34
2017-07-22T11:14:14.634Z,966.31
2017-07-22T11:15:14.638Z,966.31
2017-07-22T11:16:14.636Z,966.27
2017-07-22T11:17:14.636Z,966.28
2017-07-22T11:18:14.635Z,966.27
2017-07-22T11:19:14.636Z,966.27
2017-07-22T11:20:14.636Z,966.27
2017-07-22T11:21:14.636Z,966.22
2017-07-22T11:22:14.636Z,966.21
2017-07-22T11:23:14.637Z,966.23
2017-07-22T11:24:14.787Z,966.22
2017-07-22T11:25:14.635Z,966.21
2017-07-22T11:26:14.637Z,966.24
2017-07-22T11:27:14.637Z,966.2
2017-07-22T11:28:14.637Z,966.2
2017-07-22T11:29:14.637Z,966.21
2017-07-22T11:30:14.639Z,966.26
2017-07-22T11:31:14.638Z,966.22
2017-07-22T11:32:14.638Z,966.29
2017-07-22T11:33:14.637Z,966.23
2017-07-22T11:34:14.640Z,966.27
2017-07-22T11:35:14.638Z,966.24
2017-07-22T11:36:14.637Z,966.26
2017-07-22T11:37:14.661Z,966.25
2017-07-22T11:38:14.639Z,966.22
2017-07-22T11:39:14.639Z,966.24
2017-07-22T11:40:14.638Z,966.25
2017-07-22T11:41:14.640Z,966.21
2017-07-22T11:42:14.639Z,966.2
2017-07-22T11:43:14.638Z,966.18
2017-07-22T11:44:14.640Z,966.19
2017-07-22T11:45:14.640Z,966.18
2017-07-22T11:46:14.741Z,966.19
2017-07-22T11:47:14.639Z,966.2
2017-07-22T11:48:14.641Z,966.18
2017-07-22T11:49:14.640Z,966.2
2017-07-22T11:50:14.639Z,966.2
2017-07-22T11:51:14.640Z,966.18
2017-07-22T11:52:14.640Z,966.13
2017-07-22T11:53:14.644Z,966.17
2017-07-22T11:54:14.640Z,966.15
2017-07-22T11:55:14.741Z,966.17
2017-07-22T11:56:14.640Z,966.13
2017-07-22T11:57:14.641Z,966.15
2017-07-22T11:58:14.641Z,966.16
2017-07-22T11:59:14.653Z,966.12
2017-07-22T12:00:14.654Z,966.08
2017-07-22T12:01:14.653Z,966.09
2017-07-22T12:02:14.653Z,966.1
2017-07-22T12:03:14.654Z,966.11
2017-07-22T12:04:14.652Z,966.11
2017-07-22T12:05:14.653Z,966.11
2017-07-22T12:06:14.654Z,966.09
2017-07-22T12:07:14.655Z,966.14
2017-07-22T12:08:14.653Z,966.07
2017-07-22T12:09:14.655Z,966.11
2017-07-22T12:10:14.642Z,966.1
2017-07-22T12:11:14.642Z,966.1
2017-07-22T12:12:14.742Z,966.05
2017-07-22T12:13:14.646Z,966.08
2017-07-22T12:14:14.643Z,966.09
2017-07-22T12:15:14.643Z,966.09
2017-07-22T12:16:14.641Z,966.11
2017-07-22T12:17:14.642Z,966.1
2017-07-22T12:18:14.644Z,966.09
2017-07-22T12:19:14.643Z,966.07
2017-07-22T12:20:14.643Z,966.06
2017-07-22T12:21:14.642Z,966.08
2017-07-22T12:22:14.644Z,966.02
2017-07-22T12:23:14.643Z,966.03
2017-07-22T12:24:14.643Z,966.07
2017-07-22T12:25:14.643Z,966.02
2017-07-22T12:26:14.644Z,966.03
2017-07-22T12:27:14.644Z,966
2017-07-22T12:28:14.648Z,966.02
2017-07-22T12:29:14.645Z,966
2017-07-22T12:30:14.644Z,965.99
2017-07-22T12:31:14.645Z,965.98